createdAt,value
2022-10-18T00:02:04.544Z,13.50
2022-10-18T00:04:33.750Z,13.50
2022-10-18T00:07:03.356Z,13.40
2022-10-18T00:09:33.442Z,13.40
2022-10-18T00:12:08.894Z,13.40
2022-10-18T00:14:37.409Z,13.40
2022-10-18T00:17:05.632Z,13.40
2022-10-18T00:19:35.123Z,13.40
2022-10-18T00:22:04.222Z,13.50
2022-10-18T00:24:41.831Z,13.50
2022-10-18T00:27:11.344Z,13.50
2022-10-18T00:29:40.980Z,13.50
2022-10-18T00:32:13.908Z,13.40
2022-10-18T00:34:42.216Z,13.50
2022-10-18T00:37:13.196Z,13.50
2022-10-18T00:39:44.061Z,13.50
2022-10-18T00:42:23.948Z,13.50
2022-10-18T00:45:13.008Z,13.40
2022-10-18T00:47:50.024Z,13.40
2022-10-18T00:50:23.477Z,13.40
2022-10-18T00:52:59.858Z,13.40
2022-10-18T00:55:32.168Z,13.30
2022-10-18T00:58:04.102Z,13.30
2022-10-18T01:00:32.992Z,13.20
2022-10-18T01:05:48.071Z,13.10
2022-10-18T01:08:53.067Z,13.00
2022-10-18T01:11:58.877Z,13.00
2022-10-18T01:15:09.632Z,13.00
2022-10-18T01:17:46.311Z,13.00
2022-10-18T01:20:59.917Z,13.00
2022-10-18T01:23:43.537Z,13.00
2022-10-18T01:26:53.202Z,13.00
2022-10-18T01:29:59.467Z,13.00
2022-10-18T01:32:37.737Z,12.90
2022-10-18T01:35:11.468Z,12.90
2022-10-18T01:37:40.380Z,12.80
2022-10-18T01:40:09.463Z,12.70
2022-10-18T01:42:36.542Z,12.50
2022-10-18T01:45:04.698Z,12.50
2022-10-18T01:47:32.763Z,12.50
2022-10-18T01:50:06.369Z,12.50
2022-10-18T01:52:34.690Z,12.50
2022-10-18T01:55:03.776Z,12.40
2022-10-18T01:57:42.738Z,12.40
2022-10-18T02:00:24.258Z,12.30
2022-10-18T02:03:36.660Z,12.30
2022-10-18T02:06:19.052Z,12.30
2022-10-18T02:09:07.919Z,12.30
2022-10-18T02:11:37.193Z,12.30
2022-10-18T02:14:08.897Z,12.30
2022-10-18T02:16:52.016Z,12.40
2022-10-18T02:19:26.870Z,12.40
2022-10-18T02:21:57.318Z,12.40
2022-10-18T02:24:37.856Z,12.40
2022-10-18T02:27:05.443Z,12.40
2022-10-18T02:29:33.615Z,12.40
2022-10-18T02:32:13.307Z,12.40
2022-10-18T02:34:46.634Z,12.40
2022-10-18T02:37:15.765Z,12.40
2022-10-18T02:39:51.768Z,12.30
2022-10-18T02:42:18.833Z,12.20
2022-10-18T02:44:45.843Z,12.20
2022-10-18T02:47:13.328Z,12.20
2022-10-18T02:49:40.414Z,12.20
2022-10-18T02:52:07.534Z,12.20
2022-10-18T02:54:35.138Z,12.20
2022-10-18T02:57:02.235Z,12.10
2022-10-18T02:59:29.373Z,12.20
2022-10-18T03:01:56.628Z,12.10
2022-10-18T03:04:23.943Z,12.10
2022-10-18T03:06:51.108Z,12.10
2022-10-18T03:09:18.209Z,12.10
2022-10-18T03:11:45.330Z,12.10
2022-10-18T03:14:12.525Z,12.10
2022-10-18T03:16:39.634Z,12.10
2022-10-18T03:19:06.856Z,12.00
2022-10-18T03:21:33.929Z,12.00
2022-10-18T03:24:02.034Z,11.90
2022-10-18T03:26:29.119Z,11.80
2022-10-18T03:28:56.246Z,11.70
2022-10-18T03:33:57.934Z,11.80
2022-10-18T03:36:25.140Z,11.70
2022-10-18T03:38:52.204Z,11.70
2022-10-18T03:41:20.867Z,11.70
2022-10-18T03:43:48.230Z,11.60
2022-10-18T03:46:15.431Z,11.60
2022-10-18T03:48:42.640Z,11.60
2022-10-18T03:51:09.877Z,11.60
2022-10-18T03:53:36.992Z,11.60
2022-10-18T03:56:04.177Z,11.60
2022-10-18T03:58:31.273Z,11.60
2022-10-18T04:00:58.452Z,11.60
2022-10-18T04:03:25.517Z,11.60
2022-10-18T04:05:52.608Z,11.60
2022-10-18T04:08:20.057Z,11.70
2022-10-18T04:10:47.203Z,11.70
2022-10-18T04:13:14.297Z,11.60
2022-10-18T04:15:41.526Z,11.60
2022-10-18T04:18:08.538Z,11.60
2022-10-18T04:20:35.717Z,11.60
2022-10-18T04:23:02.967Z,11.60
2022-10-18T04:25:30.141Z,11.60
2022-10-18T04:27:57.205Z,11.60
2022-10-18T04:30:24.267Z,11.50
2022-10-18T04:32:51.302Z,11.60
2022-10-18T04:35:18.405Z,11.50
2022-10-18T04:37:45.409Z,11.50
2022-10-18T04:40:12.979Z,11.50
2022-10-18T04:42:40.147Z,11.50
2022-10-18T04:45:08.244Z,11.50
2022-10-18T04:47:35.670Z,11.50
2022-10-18T04:50:02.878Z,11.60
2022-10-18T04:52:30.227Z,11.60
2022-10-18T04:54:57.365Z,11.60
2022-10-18T04:57:24.527Z,11.60
2022-10-18T04:59:51.551Z,11.50
2022-10-18T05:02:18.593Z,11.50
2022-10-18T05:04:45.944Z,11.40
2022-10-18T05:07:13.126Z,11.40
2022-10-18T05:09:40.513Z,11.40
2022-10-18T05:12:07.484Z,11.30
2022-10-18T05:14:34.712Z,11.30
2022-10-18T05:17:01.753Z,11.20
2022-10-18T05:19:28.906Z,11.00
2022-10-18T05:21:55.978Z,10.80
2022-10-18T05:24:25.525Z,10.60
2022-10-18T05:26:55.062Z,10.40
2022-10-18T05:29:22.348Z,10.30
2022-10-18T05:31:50.768Z,10.30
2022-10-18T05:34:20.778Z,10.20
2022-10-18T05:36:50.115Z,10.20
2022-10-18T05:39:17.164Z,10.20
2022-10-18T05:41:44.218Z,10.20
2022-10-18T05:44:11.273Z,10.20
2022-10-18T05:46:38.405Z,10.20
2022-10-18T05:49:05.567Z,10.40
2022-10-18T05:51:32.663Z,10.50
2022-10-18T05:53:59.907Z,10.50
2022-10-18T05:56:27.010Z,10.60
2022-10-18T05:58:54.183Z,10.70
2022-10-18T06:01:21.842Z,10.90
2022-10-18T06:03:49.049Z,11.00
2022-10-18T06:06:16.407Z,11.10
2022-10-18T06:08:44.842Z,11.20
2022-10-18T06:11:17.398Z,11.30
2022-10-18T06:13:51.271Z,11.40
2022-10-18T06:16:28.530Z,11.60
2022-10-18T06:19:00.205Z,10.50
2022-10-18T06:21:27.852Z,8.90
2022-10-18T06:23:59.305Z,7.80
2022-10-18T06:26:27.853Z,7.10
2022-10-18T06:28:55.164Z,6.60
2022-10-18T06:31:22.407Z,6.50
2022-10-18T06:33:49.679Z,6.80
2022-10-18T06:36:19.726Z,7.50
2022-10-18T06:38:46.846Z,8.40
2022-10-18T06:41:14.520Z,9.20
2022-10-18T06:43:42.022Z,9.90
2022-10-18T06:46:09.564Z,10.50
2022-10-18T06:48:38.550Z,10.80
2022-10-18T06:51:07.755Z,11.20
2022-10-18T06:53:44.183Z,11.60
2022-10-18T06:56:15.845Z,11.90
2022-10-18T06:58:43.033Z,12.30
2022-10-18T07:01:18.221Z,12.60
2022-10-18T07:03:47.748Z,12.80
2022-10-18T07:06:17.269Z,13.00
2022-10-18T07:08:44.667Z,13.00
2022-10-18T07:11:19.749Z,13.30
2022-10-18T07:13:46.998Z,13.40
2022-10-18T07:16:18.494Z,13.50
2022-10-18T07:18:51.841Z,13.50
2022-10-18T07:21:21.354Z,13.70
2022-10-18T07:23:49.353Z,14.00
2022-10-18T07:26:29.356Z,14.20
2022-10-18T07:29:22.845Z,14.40
2022-10-18T07:31:49.983Z,14.70
2022-10-18T07:34:17.143Z,15.20
2022-10-18T07:36:44.262Z,15.50
2022-10-18T07:39:11.353Z,15.70
2022-10-18T07:41:39.749Z,16.10
2022-10-18T07:44:06.807Z,16.40
2022-10-18T07:46:34.104Z,16.80
2022-10-18T07:49:01.185Z,16.90
2022-10-18T07:51:28.313Z,17.30
2022-10-18T07:53:55.382Z,17.10
2022-10-18T07:56:22.583Z,17.10
2022-10-18T07:58:53.043Z,17.10
2022-10-18T08:01:23.698Z,17.40
2022-10-18T08:04:07.207Z,17.80
2022-10-18T08:06:38.128Z,18.20
2022-10-18T08:09:07.994Z,19.00
2022-10-18T08:11:37.638Z,19.90
2022-10-18T08:14:04.606Z,20.60
2022-10-18T08:16:45.928Z,20.90
2022-10-18T08:19:17.933Z,21.10
2022-10-18T08:21:46.579Z,21.20
2022-10-18T08:24:15.863Z,21.20
2022-10-18T08:26:45.685Z,20.70
2022-10-18T08:29:26.995Z,20.30
2022-10-18T08:32:07.023Z,20.00
2022-10-18T08:34:40.118Z,19.80
2022-10-18T08:37:11.879Z,19.50
2022-10-18T08:39:39.984Z,19.30
2022-10-18T08:42:37.499Z,19.50
2022-10-18T08:45:12.983Z,19.40
2022-10-18T08:47:53.973Z,19.40
2022-10-18T08:50:51.589Z,19.20
2022-10-18T08:53:29.421Z,19.10
2022-10-18T08:56:24.052Z,19.30
2022-10-18T08:58:53.244Z,19.20
2022-10-18T09:04:53.953Z,19.10
2022-10-18T09:07:59.993Z,19.20
2022-10-18T09:11:06.428Z,19.20
2022-10-18T09:13:55.087Z,19.20
2022-10-18T09:17:06.557Z,19.20
2022-10-18T09:20:14.778Z,19.10
2022-10-18T09:23:31.288Z,19.10
2022-10-18T09:26:22.489Z,19.40
2022-10-18T09:29:29.200Z,19.40
2022-10-18T09:32:19.283Z,19.50
2022-10-18T09:35:29.249Z,19.40
2022-10-18T09:38:19.913Z,19.40
2022-10-18T09:41:32.143Z,19.60
2022-10-18T09:44:32.682Z,19.40
2022-10-18T09:47:16.956Z,19.50
2022-10-18T09:50:28.727Z,19.70
2022-10-18T09:53:41.164Z,19.70
2022-10-18T09:56:39.408Z,19.80
2022-10-18T09:59:46.188Z,20.10
2022-10-18T10:02:25.241Z,20.30
2022-10-18T10:04:59.888Z,20.30
2022-10-18T10:07:38.237Z,20.30
2022-10-18T10:10:18.723Z,20.30
2022-10-18T10:12:46.390Z,20.30
2022-10-18T10:15:31.262Z,20.20
2022-10-18T10:18:33.204Z,20.30
2022-10-18T10:21:11.900Z,20.30
2022-10-18T10:24:02.073Z,20.40
2022-10-18T10:26:48.051Z,20.30
2022-10-18T10:30:04.181Z,20.20
2022-10-18T10:32:49.905Z,20.30
2022-10-18T10:35:57.969Z,20.30
2022-10-18T10:38:27.563Z,20.10
2022-10-18T10:40:57.359Z,18.20
2022-10-18T10:43:39.723Z,15.70
2022-10-18T10:46:17.633Z,13.90
2022-10-18T10:52:37.207Z,12.40
2022-10-18T10:55:30.740Z,12.40
2022-10-18T10:57:58.148Z,14.00
2022-10-18T11:00:52.945Z,15.10
2022-10-18T11:03:29.219Z,16.00
2022-10-18T11:06:01.484Z,16.80
2022-10-18T11:08:40.887Z,17.30
2022-10-18T11:11:31.304Z,17.60
2022-10-18T11:14:41.768Z,18.10
2022-10-18T11:18:01.965Z,18.60
2022-10-18T11:21:04.304Z,18.80
2022-10-18T11:23:34.334Z,18.80
2022-10-18T11:26:28.489Z,18.80
2022-10-18T11:29:19.659Z,18.50
2022-10-18T11:32:28.673Z,18.50
2022-10-18T11:35:22.852Z,18.70
2022-10-18T11:38:21.904Z,19.00
2022-10-18T11:41:18.174Z,19.20
2022-10-18T11:44:26.704Z,19.20
2022-10-18T11:47:31.707Z,19.40
2022-10-18T11:50:04.209Z,19.20
2022-10-18T11:53:01.563Z,19.20
2022-10-18T11:55:58.788Z,19.10
2022-10-18T11:58:50.649Z,19.20
2022-10-18T12:01:46.728Z,19.20
2022-10-18T12:04:58.441Z,19.30
2022-10-18T12:08:02.694Z,19.70
2022-10-18T12:10:46.142Z,20.00
2022-10-18T12:13:48.154Z,20.20
2022-10-18T12:16:16.784Z,20.20
2022-10-18T12:19:03.662Z,20.20
2022-10-18T12:21:38.785Z,20.10
2022-10-18T12:24:11.513Z,20.10
2022-10-18T12:26:40.523Z,20.10
2022-10-18T12:29:39.504Z,20.10
2022-10-18T12:32:16.283Z,20.00
2022-10-18T12:35:06.085Z,19.90
2022-10-18T12:38:03.853Z,19.90
2022-10-18T12:40:59.793Z,20.10
2022-10-18T12:43:37.045Z,20.20
2022-10-18T12:46:14.000Z,20.20
2022-10-18T12:48:51.034Z,20.10
2022-10-18T12:51:23.130Z,20.20
2022-10-18T12:54:13.172Z,20.00
2022-10-18T12:56:42.868Z,19.90
2022-10-18T12:59:19.995Z,20.00
2022-10-18T13:02:01.153Z,20.00
2022-10-18T13:04:41.355Z,20.10
2022-10-18T13:07:30.126Z,20.20
2022-10-18T13:10:22.868Z,20.20
2022-10-18T13:13:39.586Z,20.30
2022-10-18T13:16:33.274Z,20.20
2022-10-18T13:19:39.578Z,20.20
2022-10-18T13:22:27.788Z,20.20
2022-10-18T13:25:29.653Z,20.20
2022-10-18T13:28:36.043Z,20.20
2022-10-18T13:31:44.139Z,20.20
2022-10-18T13:34:40.007Z,20.20
2022-10-18T13:37:30.554Z,20.20
2022-10-18T13:40:25.568Z,20.20
2022-10-18T13:42:53.983Z,20.30
2022-10-18T13:45:37.050Z,20.30
2022-10-18T13:48:34.431Z,20.20
2022-10-18T13:51:33.831Z,20.10
2022-10-18T13:54:25.632Z,20.10
2022-10-18T13:57:17.719Z,20.20
2022-10-18T14:00:30.155Z,20.30
2022-10-18T14:03:43.990Z,20.40
2022-10-18T14:06:26.024Z,20.40
2022-10-18T14:09:19.689Z,20.10
2022-10-18T14:12:10.078Z,17.70
2022-10-18T14:15:14.314Z,15.50
2022-10-18T14:18:32.644Z,14.20
2022-10-18T14:21:21.810Z,13.20
2022-10-18T14:23:52.553Z,13.80
2022-10-18T14:26:22.968Z,14.70
2022-10-18T14:29:25.270Z,15.40
2022-10-18T14:31:56.645Z,16.10
2022-10-18T14:34:27.352Z,16.60
2022-10-18T14:36:56.885Z,17.00
2022-10-18T14:39:29.988Z,17.30
2022-10-18T14:41:59.158Z,17.60
2022-10-18T14:44:32.669Z,17.80
2022-10-18T14:47:23.223Z,18.00
2022-10-18T14:50:04.209Z,18.00
2022-10-18T14:52:35.852Z,18.00
2022-10-18T14:55:05.444Z,18.00
2022-10-18T14:57:38.352Z,18.10
2022-10-18T15:00:09.529Z,18.00
2022-10-18T15:02:40.915Z,18.10
2022-10-18T15:08:14.750Z,18.10
2022-10-18T15:10:44.439Z,18.20
2022-10-18T15:13:21.325Z,18.20
2022-10-18T15:15:50.583Z,18.10
2022-10-18T15:18:28.830Z,18.10
2022-10-18T15:21:25.088Z,18.10
2022-10-18T15:23:55.324Z,18.10
2022-10-18T15:26:35.744Z,18.10
2022-10-18T15:29:11.879Z,18.10
2022-10-18T15:31:45.078Z,18.10
2022-10-18T15:34:27.293Z,18.10
2022-10-18T15:36:58.543Z,18.10
2022-10-18T15:39:32.829Z,18.10
2022-10-18T15:42:36.489Z,18.10
2022-10-18T15:45:34.766Z,18.00
2022-10-18T15:48:24.053Z,18.00
2022-10-18T15:51:07.822Z,18.00
2022-10-18T15:53:55.708Z,17.90
2022-10-18T15:56:41.452Z,17.90
2022-10-18T15:59:34.143Z,17.90
2022-10-18T16:02:10.053Z,17.80
2022-10-18T16:04:39.289Z,17.80
2022-10-18T16:07:08.879Z,17.70
2022-10-18T16:09:39.814Z,17.70
2022-10-18T16:12:10.764Z,17.70
2022-10-18T16:14:40.851Z,17.60
2022-10-18T16:17:20.444Z,17.60
2022-10-18T16:19:49.304Z,17.50
2022-10-18T16:22:23.673Z,17.60
2022-10-18T16:24:57.769Z,17.50
2022-10-18T16:27:28.032Z,17.50
2022-10-18T16:29:56.807Z,17.50
2022-10-18T16:32:26.314Z,17.50
2022-10-18T16:34:55.063Z,17.40
2022-10-18T16:37:31.731Z,17.40
2022-10-18T16:40:01.392Z,17.40
2022-10-18T16:42:32.045Z,17.30
2022-10-18T16:45:00.768Z,17.30
2022-10-18T16:47:27.725Z,17.30
2022-10-18T16:50:06.339Z,17.20
2022-10-18T16:52:42.154Z,17.30
2022-10-18T16:55:24.871Z,17.20
2022-10-18T16:57:54.423Z,17.20
2022-10-18T17:00:26.590Z,17.10
2022-10-18T17:02:56.638Z,17.00
2022-10-18T17:08:30.124Z,17.00
2022-10-18T17:10:59.157Z,17.00
2022-10-18T17:13:29.395Z,17.00
2022-10-18T17:16:08.338Z,16.90
2022-10-18T17:18:37.566Z,16.90
2022-10-18T17:21:06.119Z,16.90
2022-10-18T17:23:36.409Z,16.90
2022-10-18T17:26:21.978Z,16.80
2022-10-18T17:29:16.123Z,16.80
2022-10-18T17:31:46.435Z,16.80
2022-10-18T17:34:21.636Z,16.80
2022-10-18T17:36:51.123Z,16.80
2022-10-18T17:39:28.760Z,16.70
2022-10-18T17:42:03.194Z,16.70
2022-10-18T17:44:33.869Z,16.70
2022-10-18T17:47:04.592Z,16.70
2022-10-18T17:49:41.538Z,16.70
2022-10-18T17:52:12.094Z,16.70
2022-10-18T17:54:40.593Z,16.70
2022-10-18T17:57:11.909Z,16.70
2022-10-18T17:59:40.945Z,16.70
2022-10-18T18:02:13.469Z,16.70
2022-10-18T18:04:50.809Z,16.70
2022-10-18T18:07:41.151Z,16.70
2022-10-18T18:10:10.608Z,16.70
2022-10-18T18:12:41.270Z,16.70
2022-10-18T18:15:14.677Z,16.60
2022-10-18T18:17:58.309Z,16.60
2022-10-18T18:20:37.685Z,16.60
2022-10-18T18:23:14.276Z,16.60
2022-10-18T18:25:44.718Z,16.50
2022-10-18T18:28:12.925Z,16.50
2022-10-18T18:30:42.897Z,16.40
2022-10-18T18:33:14.046Z,16.40
2022-10-18T18:35:43.044Z,16.40
2022-10-18T18:38:12.689Z,14.70
2022-10-18T18:40:40.789Z,12.70
2022-10-18T18:43:23.122Z,11.40
2022-10-18T18:45:53.485Z,10.40
2022-10-18T18:48:29.469Z,9.90
2022-10-18T18:51:06.830Z,9.50
2022-10-18T18:53:35.389Z,9.30
2022-10-18T18:56:08.199Z,9.40
2022-10-18T18:58:41.903Z,10.30
2022-10-18T19:01:24.841Z,11.30
2022-10-18T19:03:55.599Z,12.10
2022-10-18T19:06:27.734Z,12.60
2022-10-18T19:09:05.468Z,12.90
2022-10-18T19:11:41.419Z,13.20
2022-10-18T19:14:10.196Z,13.40
2022-10-18T19:16:41.924Z,13.60
2022-10-18T19:19:19.096Z,13.80
2022-10-18T19:21:51.863Z,13.90
2022-10-18T19:24:25.456Z,14.00
2022-10-18T19:27:08.803Z,14.10
2022-10-18T19:29:50.653Z,14.20
2022-10-18T19:32:20.196Z,14.30
2022-10-18T19:34:48.691Z,14.40
2022-10-18T19:37:25.786Z,14.40
2022-10-18T19:39:56.207Z,14.40
2022-10-18T19:42:31.648Z,14.40
2022-10-18T19:45:06.948Z,14.30
2022-10-18T19:47:37.590Z,14.40
2022-10-18T19:50:06.553Z,14.50
2022-10-18T19:52:34.997Z,14.60
2022-10-18T19:55:13.654Z,14.60
2022-10-18T19:57:50.134Z,14.60
2022-10-18T20:00:20.409Z,14.60
2022-10-18T20:02:56.130Z,14.70
2022-10-18T20:05:35.703Z,14.60
2022-10-18T20:08:04.985Z,14.70
2022-10-18T20:10:33.433Z,14.70
2022-10-18T20:13:01.513Z,14.70
2022-10-18T20:15:31.991Z,14.70
2022-10-18T20:18:01.684Z,14.70
2022-10-18T20:20:30.534Z,14.70
2022-10-18T20:22:58.749Z,14.60
2022-10-18T20:25:37.954Z,14.60
2022-10-18T20:28:09.249Z,14.60
2022-10-18T20:30:37.438Z,14.50
2022-10-18T20:33:05.877Z,14.50
2022-10-18T20:35:34.063Z,14.40
2022-10-18T20:38:02.834Z,14.50
2022-10-18T20:40:31.124Z,14.40
2022-10-18T20:43:03.728Z,14.50
2022-10-18T20:45:42.517Z,14.40
2022-10-18T20:48:11.044Z,14.40
2022-10-18T20:50:42.338Z,14.50
2022-10-18T20:53:11.570Z,14.50
2022-10-18T20:55:43.008Z,14.50
2022-10-18T20:58:13.224Z,14.50
2022-10-18T21:00:43.968Z,14.50
2022-10-18T21:03:14.830Z,14.60
2022-10-18T21:05:43.413Z,14.50
2022-10-18T21:08:16.368Z,14.40
2022-10-18T21:10:53.593Z,14.40
2022-10-18T21:13:32.343Z,14.30
2022-10-18T21:16:03.646Z,14.30
2022-10-18T21:18:33.434Z,14.30
2022-10-18T21:21:28.786Z,14.30
2022-10-18T21:24:02.444Z,14.20
2022-10-18T21:26:36.477Z,14.20
2022-10-18T21:29:07.119Z,14.20
2022-10-18T21:31:39.999Z,14.20
2022-10-18T21:34:18.244Z,14.20
2022-10-18T21:36:49.345Z,14.10
2022-10-18T21:41:51.074Z,14.00
2022-10-18T21:44:28.168Z,14.00
2022-10-18T21:47:00.178Z,13.90
2022-10-18T21:49:32.873Z,13.90
2022-10-18T21:52:05.460Z,13.80
2022-10-18T21:54:35.484Z,13.80
2022-10-18T21:57:05.244Z,13.90
2022-10-18T21:59:33.509Z,13.90
2022-10-18T22:02:04.328Z,13.90
2022-10-18T22:04:36.044Z,13.90
2022-10-18T22:07:14.445Z,14.00
2022-10-18T22:09:46.050Z,13.90
2022-10-18T22:12:23.498Z,13.90
2022-10-18T22:14:53.439Z,13.90
2022-10-18T22:17:26.449Z,13.80
2022-10-18T22:19:57.218Z,13.80
2022-10-18T22:22:25.585Z,13.90
2022-10-18T22:24:53.583Z,13.90
2022-10-18T22:27:23.202Z,13.90
2022-10-18T22:29:53.124Z,13.90
2022-10-18T22:32:21.849Z,13.90
2022-10-18T22:34:51.363Z,13.90
2022-10-18T22:37:21.608Z,13.80
2022-10-18T22:39:49.890Z,13.80
2022-10-18T22:42:28.382Z,13.70
2022-10-18T22:45:05.091Z,13.70
2022-10-18T22:47:34.883Z,13.60
2022-10-18T22:50:04.387Z,13.70
2022-10-18T22:52:33.761Z,13.70
2022-10-18T22:55:08.969Z,13.70
2022-10-18T22:57:37.275Z,13.70
2022-10-18T23:00:06.664Z,13.80
2022-10-18T23:02:44.570Z,13.80
2022-10-18T23:05:15.124Z,13.70
2022-10-18T23:07:50.508Z,13.60
2022-10-18T23:10:28.742Z,13.60
2022-10-18T23:12:57.204Z,13.70
2022-10-18T23:15:27.012Z,13.70
2022-10-18T23:18:02.189Z,13.70
2022-10-18T23:20:30.755Z,13.70
2022-10-18T23:22:59.050Z,13.60
2022-10-18T23:25:30.089Z,13.50
2022-10-18T23:28:01.110Z,13.50
2022-10-18T23:30:30.989Z,13.50
2022-10-18T23:32:59.205Z,13.50
2022-10-18T23:35:29.123Z,13.50
2022-10-18T23:38:06.209Z,13.50
2022-10-18T23:40:34.885Z,13.50
2022-10-18T23:43:11.804Z,13.50
2022-10-18T23:45:43.057Z,13.50
2022-10-18T23:48:10.503Z,13.50
2022-10-18T23:50:40.873Z,13.40
2022-10-18T23:53:11.423Z,13.40
2022-10-18T23:55:40.239Z,13.40
2022-10-18T23:58:09.908Z,13.40
